Observation data for Andrews on 02/21/2019      Previous  Date  Next       Current Mesonet Observations  Soil Data  Daily Summary Page  Observations in Plain Language
KANS 210600Z 18007KT 06/M06 A2984 RMK A01 T00581063  RH  042%=      5-min Rain = 0
KANS 210605Z 18007KT 06/M06 A2985 RMK A01 T00591061  RH  042%=      5-min Rain = 0
KANS 210610Z 18007KT 06/M06 A2985 RMK A01 T00611060  RH  042%=      5-min Rain = 0
KANS 210615Z 18007KT 06/M06 A2985 RMK A01 T00621058  RH  042%=      5-min Rain = 0
KANS 210620Z 18008KT 06/M06 A2985 RMK A01 T00641057  RH  042%=      5-min Rain = 0
KANS 210625Z 18007KT 07/M06 A2984 RMK A01 T00651056  RH  042%=      5-min Rain = 0
KANS 210630Z 17007KT 07/M06 A2984 RMK A01 T00661055  RH  042%=      5-min Rain = 0
KANS 210635Z 18007KT 07/M05 A2984 RMK A01 T00671054  RH  042%=      5-min Rain = 0
KANS 210640Z 18007KT 07/M05 A2984 RMK A01 T00671052  RH  043%=      5-min Rain = 0
KANS 210645Z 18008KT 07/M05 A2984 RMK A01 T00671051  RH  043%=      5-min Rain = 0
KANS 210650Z 18007KT 07/M05 A2985 RMK A01 T00681050  RH  043%=      5-min Rain = 0
KANS 210655Z 17008KT 07/M05 A2985 RMK A01 T00681049  RH  044%=      5-min Rain = 0
KANS 210700Z 17008KT 07/M05 A2985 RMK A01 T00691047  RH  044%=      5-min Rain = 0
KANS 210705Z 17009KT 07/M05 A2984 RMK A01 T00701046  RH  044%=      5-min Rain = 0
KANS 210710Z 17009KT 07/M05 A2984 RMK A01 T00711045  RH  044%=      5-min Rain = 0
KANS 210715Z 17008KT 07/M04 A2984 RMK A01 T00711044  RH  044%=      5-min Rain = 0
KANS 210720Z 17009KT 07/M04 A2984 RMK A01 T00711043  RH  045%=      5-min Rain = 0
KANS 210725Z 17008KT 07/M04 A2984 RMK A01 T00711042  RH  045%=      5-min Rain = 0
KANS 210730Z 17009KT 07/M04 A2985 RMK A01 T00711041  RH  045%=      5-min Rain = 0
KANS 210735Z 17008KT 07/M04 A2984 RMK A01 T00711040  RH  045%=      5-min Rain = 0
KANS 210740Z 17007KT 07/M04 A2984 RMK A01 T00721039  RH  046%=      5-min Rain = 0
KANS 210745Z 17009KT 07/M04 A2984 RMK A01 T00721038  RH  046%=      5-min Rain = 0
KANS 210750Z 16008KT 07/M04 A2984 RMK A01 T00731037  RH  046%=      5-min Rain = 0
KANS 210755Z 17008KT 07/M04 A2983 RMK A01 T00731037  RH  046%=      5-min Rain = 0
KANS 210800Z 17008KT 07/M04 A2983 RMK A01 T00731036  RH  046%=      5-min Rain = 0
KANS 210805Z 17008KT 07/M04 A2984 RMK A01 T00731035  RH  047%=      5-min Rain = 0
KANS 210810Z 17008KT 07/M04 A2984 RMK A01 T00731035  RH  047%=      5-min Rain = 0
KANS 210815Z 17008KT 07/M04 A2984 RMK A01 T00741035  RH  047%=      5-min Rain = 0
KANS 210820Z 16009KT 07/M03 A2983 RMK A01 T00741034  RH  046%=      5-min Rain = 0
KANS 210825Z 17009KT 07/M03 A2983 RMK A01 T00741034  RH  046%=      5-min Rain = 0
KANS 210830Z 17008KT 07/M03 A2983 RMK A01 T00741034  RH  047%=      5-min Rain = 0
KANS 210835Z 17008KT 07/M03 A2983 RMK A01 T00731034  RH  047%=      5-min Rain = 0
KANS 210840Z 17008KT 07/M03 A2983 RMK A01 T00731034  RH  047%=      5-min Rain = 0
KANS 210845Z 16008KT 07/M03 A2983 RMK A01 T00731034  RH  047%=      5-min Rain = 0
KANS 210850Z 17008KT 07/M03 A2983 RMK A01 T00721034  RH  047%=      5-min Rain = 0
KANS 210855Z 17008KT 07/M03 A2983 RMK A01 T00721034  RH  047%=      5-min Rain = 0
KANS 210900Z 17008KT 07/M03 A2983 RMK A01 T00711034  RH  047%=      5-min Rain = 0
KANS 210905Z 17007KT 07/M03 A2983 RMK A01 T00711034  RH  047%=      5-min Rain = 0
KANS 210910Z 17008KT 07/M03 A2983 RMK A01 T00711034  RH  048%=      5-min Rain = 0
KANS 210915Z 17006KT 07/M04 A2983 RMK A01 T00711035  RH  048%=      5-min Rain = 0
KANS 210920Z 17006KT 07/M04 A2983 RMK A01 T00701035  RH  048%=      5-min Rain = 0
KANS 210925Z 17006KT 07/M04 A2983 RMK A01 T00691035  RH  048%=      5-min Rain = 0
KANS 210930Z 17006KT 07/M04 A2983 RMK A01 T00691035  RH  048%=      5-min Rain = 0
KANS 210935Z 16006KT 07/M04 A2982 RMK A01 T00691035  RH  048%=      5-min Rain = 0
KANS 210940Z 17006KT 07/M04 A2982 RMK A01 T00691035  RH  048%=      5-min Rain = 0
KANS 210945Z 16005KT 07/M04 A2982 RMK A01 T00681035  RH  048%=      5-min Rain = 0
KANS 210950Z 15004KT 07/M04 A2981 RMK A01 T00671036  RH  048%=      5-min Rain = 0
KANS 210955Z 14005KT 07/M04 A2981 RMK A01 T00651036  RH  049%=      5-min Rain = 0
KANS 211000Z 14006KT 06/M04 A2981 RMK A01 T00641036  RH  049%=      5-min Rain = 0
KANS 211005Z 14006KT 06/M04 A298 RMK A01 T00631036  RH  050%=      5-min Rain = 0
KANS 211010Z 14006KT 06/M04 A298 RMK A01 T00631036  RH  050%=      5-min Rain = 0
KANS 211015Z 13007KT 06/M04 A298 RMK A01 T00641036  RH  049%=      5-min Rain = 0
KANS 211020Z 14006KT 07/M04 A298 RMK A01 T00651037  RH  049%=      5-min Rain = 0
KANS 211025Z 14007KT 07/M04 A298 RMK A01 T00651037  RH  049%=      5-min Rain = 0
KANS 211030Z 14008KT 07/M04 A2979 RMK A01 T00651037  RH  048%=      5-min Rain = 0
KANS 211035Z 14008KT 07/M04 A2979 RMK A01 T00661038  RH  048%=      5-min Rain = 0
KANS 211040Z 15007KT 07/M04 A2979 RMK A01 T00671038  RH  048%=      5-min Rain = 0
KANS 211045Z 15007KT 07/M04 A2979 RMK A01 T00681039  RH  047%=      5-min Rain = 0
KANS 211050Z 15007KT 07/M04 A2979 RMK A01 T00691039  RH  047%=      5-min Rain = 0
KANS 211055Z 16007KT 07/M04 A2979 RMK A01 T00691039  RH  046%=      5-min Rain = 0
KANS 211100Z 15008KT 07/M04 A2979 RMK A01 T00691040  RH  046%=      5-min Rain = 0
KANS 211105Z 15008KT 07/M04 A2979 RMK A01 T00691040  RH  046%=      5-min Rain = 0
KANS 211110Z 15008G13KT 07/M04 A2978 RMK A01 T00701040  RH  046%=      5-min Rain = 0
KANS 211115Z 15009KT 07/M04 A2978 RMK A01 T00701040  RH  046%=      5-min Rain = 0
KANS 211120Z 15010KT 07/M04 A2978 RMK A01 T00711041  RH  046%=      5-min Rain = 0
KANS 211125Z 16009KT 07/M04 A2978 RMK A01 T00711041  RH  045%=      5-min Rain = 0
KANS 211130Z 15010G15KT 07/M04 A2978 RMK A01 T00701041  RH  046%=      5-min Rain = 0
KANS 211135Z 15010KT 07/M04 A2977 RMK A01 T00711041  RH  045%=      5-min Rain = 0
KANS 211140Z 16009KT 07/M04 A2978 RMK A01 T00711042  RH  045%=      5-min Rain = 0
KANS 211145Z 15010KT 07/M04 A2978 RMK A01 T00721042  RH  045%=      5-min Rain = 0
KANS 211150Z 15011G16KT 07/M04 A2978 RMK A01 T00731043  RH  044%=      5-min Rain = 0
KANS 211155Z 15009G14KT 07/M04 A2978 RMK A01 T00731043  RH  044%=      5-min Rain = 0
KANS 211200Z 16009KT 07/M04 A2978 RMK A01 T00721043  RH  044%=      5-min Rain = 0
KANS 211205Z 15010KT 07/M04 A2978 RMK A01 T00721042  RH  044%=      5-min Rain = 0
KANS 211210Z 16009KT 07/M04 A2979 RMK A01 T00721042  RH  045%=      5-min Rain = 0
KANS 211215Z 16008KT 07/M04 A2979 RMK A01 T00721043  RH  044%=      5-min Rain = 0
KANS 211220Z 16008KT 07/M04 A2979 RMK A01 T00731043  RH  044%=      5-min Rain = 0
KANS 211225Z 17008KT 07/M04 A2979 RMK A01 T00731044  RH  044%=      5-min Rain = 0
KANS 211230Z 17008KT 07/M04 A298 RMK A01 T00731044  RH  044%=      5-min Rain = 0
KANS 211235Z 17007KT 07/M04 A298 RMK A01 T00731044  RH  044%=      5-min Rain = 0
KANS 211240Z 16008KT 07/M04 A298 RMK A01 T00731044  RH  043%=      5-min Rain = 0
KANS 211245Z 16007KT 07/M05 A298 RMK A01 T00731045  RH  043%=      5-min Rain = 0
KANS 211250Z 17007KT 07/M05 A298 RMK A01 T00731045  RH  043%=      5-min Rain = 0
KANS 211255Z 17008KT 07/M05 A298 RMK A01 T00741045  RH  043%=      5-min Rain = 0
KANS 211300Z 18008G13KT 08/M05 A298 RMK A01 T00751045  RH  043%=      5-min Rain = 0
KANS 211305Z 17009KT 08/M05 A298 RMK A01 T00761046  RH  042%=      5-min Rain = 0
KANS 211310Z 17009KT 08/M05 A298 RMK A01 T00771046  RH  042%=      5-min Rain = 0
KANS 211315Z 18007KT 08/M05 A298 RMK A01 T00771046  RH  042%=      5-min Rain = 0
KANS 211320Z 18007KT 08/M05 A298 RMK A01 T00761046  RH  042%=      5-min Rain = 0
KANS 211325Z 18007KT 08/M05 A298 RMK A01 T00751046  RH  043%=      5-min Rain = 0
KANS 211330Z 18006KT 07/M05 A2981 RMK A01 T00741045  RH  043%=      5-min Rain = 0
KANS 211335Z 18006KT 07/M05 A2981 RMK A01 T00731045  RH  043%=      5-min Rain = 0
KANS 211340Z 18006KT 07/M05 A2981 RMK A01 T00721045  RH  044%=      5-min Rain = 0
KANS 211345Z 18005KT 07/M05 A2981 RMK A01 T00721045  RH  044%=      5-min Rain = 0
KANS 211350Z 17005KT 07/M04 A2981 RMK A01 T00711044  RH  044%=      5-min Rain = 0
KANS 211355Z 15004KT 07/M04 A2981 RMK A01 T00691044  RH  045%=      5-min Rain = 0
KANS 211400Z 14004KT 07/M04 A2981 RMK A01 T00681044  RH  045%=      5-min Rain = 0
KANS 211405Z 14004KT 07/M04 A2981 RMK A01 T00661044  RH  046%=      5-min Rain = 0
KANS 211410Z 14005KT 07/M04 A2981 RMK A01 T00671043  RH  046%=      5-min Rain = 0
KANS 211415Z 14005KT 07/M04 A2981 RMK A01 T00671042  RH  046%=      5-min Rain = 0
KANS 211420Z 14005KT 07/M04 A2981 RMK A01 T00681042  RH  046%=      5-min Rain = 0
KANS 211425Z 14006KT 07/M04 A2981 RMK A01 T00701041  RH  046%=      5-min Rain = 0
KANS 211430Z 14006KT 07/M04 A2981 RMK A01 T00711040  RH  045%=      5-min Rain = 0
KANS 211435Z 14007KT 07/M04 A2981 RMK A01 T00731039  RH  045%=      5-min Rain = 0
KANS 211440Z 15008KT 08/M04 A2981 RMK A01 T00761039  RH  045%=      5-min Rain = 0
KANS 211445Z 15009KT 08/M04 A2982 RMK A01 T00781039  RH  044%=      5-min Rain = 0
KANS 211450Z 15009KT 08/M04 A2982 RMK A01 T00801038  RH  043%=      5-min Rain = 0
KANS 211455Z 16010KT 08/M04 A2982 RMK A01 T00821039  RH  043%=      5-min Rain = 0
KANS 211500Z 16010KT 08/M04 A2982 RMK A01 T00841038  RH  042%=      5-min Rain = 0
KANS 211505Z 16011KT 09/M04 A2982 RMK A01 T00871038  RH  041%=      5-min Rain = 0
KANS 211510Z 16012KT 09/M04 A2982 RMK A01 T00891038  RH  041%=      5-min Rain = 0
KANS 211515Z 17010KT 09/M04 A2983 RMK A01 T00911038  RH  040%=      5-min Rain = 0
KANS 211520Z 17010KT 09/M04 A2983 RMK A01 T00931038  RH  040%=      5-min Rain = 0
KANS 211525Z 17010G16KT 10/M04 A2983 RMK A01 T00951037  RH  040%=      5-min Rain = 0
KANS 211530Z 17012G19KT 10/M04 A2983 RMK A01 T00971038  RH  039%=      5-min Rain = 0
KANS 211535Z 17012G18KT 10/M04 A2983 RMK A01 T00981038  RH  038%=      5-min Rain = 0
KANS 211540Z 16013KT 10/M04 A2983 RMK A01 T01011037  RH  038%=      5-min Rain = 0
KANS 211545Z 17013KT 10/M04 A2984 RMK A01 T01031038  RH  037%=      5-min Rain = 0
KANS 211550Z 16014G19KT 10/M04 A2984 RMK A01 T01041038  RH  037%=      5-min Rain = 0
KANS 211555Z 16014KT 11/M04 A2983 RMK A01 T01051038  RH  037%=      5-min Rain = 0
KANS 211600Z 16014G20KT 11/M04 A2983 RMK A01 T01071039  RH  036%=      5-min Rain = 0
KANS 211605Z 17014G20KT 11/M04 A2984 RMK A01 T01081040  RH  035%=      5-min Rain = 0
KANS 211610Z 18015G21KT 11/M04 A2985 RMK A01 T01131038  RH  035%=      5-min Rain = 0
KANS 211615Z 17015G23KT 12/M04 A2983 RMK A01 T01201038  RH  033%=      5-min Rain = 0
KANS 211620Z 17015G20KT 12/M04 A2983 RMK A01 T01221038  RH  033%=      5-min Rain = 0
KANS 211625Z 18017G22KT 12/M04 A2983 RMK A01 T01231039  RH  033%=      5-min Rain = 0
KANS 211630Z 18016G21KT 12/M04 A2983 RMK A01 T01231038  RH  033%=      5-min Rain = 0
KANS 211635Z 18018G23KT 12/M04 A2983 RMK A01 T01231038  RH  033%=      5-min Rain = 0
KANS 211640Z 18016G21KT 13/M04 A2982 RMK A01 T01261037  RH  032%=      5-min Rain = 0
KANS 211645Z 17014G19KT 13/M04 A2982 RMK A01 T01291036  RH  032%=      5-min Rain = 0
KANS 211650Z 17014G20KT 13/M04 A2982 RMK A01 T01331035  RH  031%=      5-min Rain = 0
KANS 211655Z 17014G19KT 14/M03 A2982 RMK A01 T01361034  RH  031%=      5-min Rain = 0
KANS 211700Z 17013G18KT 14/M03 A2982 RMK A01 T01371034  RH  031%=      5-min Rain = 0
KANS 211705Z 17014G19KT 14/M03 A2982 RMK A01 T01381033  RH  031%=      5-min Rain = 0
KANS 211710Z 17014G19KT 14/M03 A2982 RMK A01 T01401032  RH  031%=      5-min Rain = 0
KANS 211715Z 17014KT 14/M03 A2982 RMK A01 T01391032  RH  031%=      5-min Rain = 0
KANS 211720Z 17014G19KT 14/M03 A2982 RMK A01 T01411031  RH  030%=      5-min Rain = 0
KANS 211725Z 16012KT 15/M03 A2981 RMK A01 T01461029  RH  030%=      5-min Rain = 0
KANS 211730Z 16013G19KT 15/M03 A2981 RMK A01 T01491029  RH  029%=      5-min Rain = 0
KANS 211735Z 17014G19KT 15/M03 A2981 RMK A01 T01451030  RH  030%=      5-min Rain = 0
KANS 211740Z 16012G17KT 15/M03 A2981 RMK A01 T01481027  RH  030%=      5-min Rain = 0
KANS 211745Z 17010G15KT 15/M03 A2981 RMK A01 T01511028  RH  029%=      5-min Rain = 0
KANS 211750Z 17010G17KT 15/M03 A2981 RMK A01 T01511027  RH  030%=      5-min Rain = 0
KANS 211755Z 17011G17KT 16/M03 A2981 RMK A01 T01551027  RH  029%=      5-min Rain = 0
KANS 211800Z 17010G16KT 16/M03 A2981 RMK A01 T01591026  RH  028%=      5-min Rain = 0
KANS 211805Z 17012KT 16/M03 A2981 RMK A01 T01611028  RH  028%=      5-min Rain = 0
KANS 211810Z 17011G16KT 16/M03 A298 RMK A01 T01621027  RH  027%=      5-min Rain = 0
KANS 211815Z 16010KT 16/M03 A298 RMK A01 T01621029  RH  027%=      5-min Rain = 0
KANS 211820Z 15010G15KT 16/M03 A298 RMK A01 T01641027  RH  027%=      5-min Rain = 0
KANS 211825Z 16012KT 17/M03 A298 RMK A01 T01671029  RH  026%=      5-min Rain = 0
KANS 211830Z 16010G15KT 17/M03 A298 RMK A01 T01681030  RH  026%=      5-min Rain = 0
KANS 211835Z 16009G15KT 17/M03 A298 RMK A01 T01691028  RH  026%=      5-min Rain = 0
KANS 211840Z 18012KT 17/M03 A298 RMK A01 T01691031  RH  026%=      5-min Rain = 0
KANS 211845Z 16011KT 17/M03 A298 RMK A01 T01701030  RH  026%=      5-min Rain = 0
KANS 211850Z 17010G15KT 17/M03 A2979 RMK A01 T01731032  RH  025%=      5-min Rain = 0
KANS 211855Z 18010G16KT 18/M03 A2979 RMK A01 T01761031  RH  025%=      5-min Rain = 0
KANS 211900Z 17010G17KT 18/M03 A2979 RMK A01 T01781031  RH  024%=      5-min Rain = 0
KANS 211905Z 15010KT 18/M03 A2978 RMK A01 T01781033  RH  024%=      5-min Rain = 0
KANS 211910Z 16009G14KT 18/M03 A2978 RMK A01 T01771030  RH  024%=      5-min Rain = 0
KANS 211915Z 16012G18KT 18/M03 A2978 RMK A01 T01801032  RH  024%=      5-min Rain = 0
KANS 211920Z 16010G15KT 18/M03 A2977 RMK A01 T01831030  RH  024%=      5-min Rain = 0
KANS 211925Z 16011KT 19/M03 A2977 RMK A01 T01871030  RH  023%=      5-min Rain = 0
KANS 211930Z 16011KT 19/M03 A2977 RMK A01 T01871033  RH  022%=      5-min Rain = 0
KANS 211935Z 17012KT 19/M04 A2976 RMK A01 T01891036  RH  022%=      5-min Rain = 0
KANS 211940Z 17011KT 19/M04 A2976 RMK A01 T01901035  RH  022%=      5-min Rain = 0
KANS 211945Z 15011G18KT 19/M04 A2976 RMK A01 T01891036  RH  022%=      5-min Rain = 0
KANS 211950Z 15011KT 19/M04 A2975 RMK A01 T01891037  RH  021%=      5-min Rain = 0
KANS 211955Z 16011KT 19/M04 A2975 RMK A01 T01901036  RH  021%=      5-min Rain = 0
KANS 212000Z 15011G16KT 19/M04 A2975 RMK A01 T01911039  RH  021%=      5-min Rain = 0
KANS 212005Z 15011KT 19/M04 A2974 RMK A01 T01921038  RH  021%=      5-min Rain = 0
KANS 212010Z 19009KT 20/M04 A2974 RMK A01 T01971043  RH  020%=      5-min Rain = 0
KANS 212015Z 20008G13KT 20/M05 A2974 RMK A01 T01961050  RH  019%=      5-min Rain = 0
KANS 212020Z 17010G18KT 20/M05 A2974 RMK A01 T01971045  RH  019%=      5-min Rain = 0
KANS 212025Z 17010KT 20/M05 A2973 RMK A01 T01961050  RH  019%=      5-min Rain = 0
KANS 212030Z 18009G17KT 20/M05 A2973 RMK A01 T01961047  RH  019%=      5-min Rain = 0
KANS 212035Z 16010G17KT 20/M05 A2973 RMK A01 T01971047  RH  019%=      5-min Rain = 0
KANS 212040Z 18010KT 20/M05 A2973 RMK A01 T02001046  RH  019%=      5-min Rain = 0
KANS 212045Z 17009G17KT 20/M05 A2973 RMK A01 T01991047  RH  019%=      5-min Rain = 0
KANS 212050Z 14011G16KT 20/M05 A2973 RMK A01 T02011046  RH  019%=      5-min Rain = 0
KANS 212055Z 15010KT 20/M05 A2973 RMK A01 T02011047  RH  019%=      5-min Rain = 0
KANS 212100Z 17013KT 20/M05 A2972 RMK A01 T02011048  RH  018%=      5-min Rain = 0
KANS 212105Z 18010G15KT 20/M05 A2972 RMK A01 T02011046  RH  019%=      5-min Rain = 0
KANS 212110Z 18011KT 20/M05 A2972 RMK A01 T02021053  RH  018%=      5-min Rain = 0
KANS 212115Z 17009KT 21/M05 A2972 RMK A01 T02051049  RH  018%=      5-min Rain = 0
KANS 212120Z 19009G14KT 21/M05 A2972 RMK A01 T02081053  RH  017%=      5-min Rain = 0
KANS 212125Z 18011KT 21/M06 A2972 RMK A01 T02071055  RH  017%=      5-min Rain = 0
KANS 212130Z 17010G15KT 21/M06 A2972 RMK A01 T02071057  RH  017%=      5-min Rain = 0
KANS 212135Z 18010G17KT 21/M06 A2972 RMK A01 T02071058  RH  016%=      5-min Rain = 0
KANS 212140Z 16009G15KT 20/M06 A2972 RMK A01 T02041058  RH  017%=      5-min Rain = 0
KANS 212145Z 19008G14KT 20/M06 A2972 RMK A01 T02041064  RH  016%=      5-min Rain = 0
KANS 212150Z 15012G18KT 20/M04 A2972 RMK A01 T02021044  RH  019%=      5-min Rain = 0
KANS 212155Z 14013G18KT 20/M03 A2972 RMK A01 T01981026  RH  022%=      5-min Rain = 0
KANS 212200Z 14012G18KT 20/M03 A2972 RMK A01 T02001025  RH  022%=      5-min Rain = 0
KANS 212205Z 12014G19KT 20/M03 A2972 RMK A01 T01951026  RH  023%=      5-min Rain = 0
KANS 212210Z 12014KT 19/M03 A2972 RMK A01 T01921026  RH  023%=      5-min Rain = 0
KANS 212215Z 13012G17KT 19/M03 A2972 RMK A01 T01931025  RH  023%=      5-min Rain = 0
KANS 212220Z 14014KT 19/M03 A2972 RMK A01 T01941027  RH  023%=      5-min Rain = 0
KANS 212225Z 13014KT 19/M03 A2972 RMK A01 T01931027  RH  023%=      5-min Rain = 0
KANS 212230Z 13012G17KT 19/M03 A2972 RMK A01 T01931028  RH  023%=      5-min Rain = 0
KANS 212235Z 14013G18KT 19/M03 A2972 RMK A01 T01941030  RH  022%=      5-min Rain = 0
KANS 212240Z 15012G17KT 19/M03 A2972 RMK A01 T01941031  RH  022%=      5-min Rain = 0
KANS 212245Z 13013G18KT 19/M03 A2972 RMK A01 T01941025  RH  023%=      5-min Rain = 0
KANS 212250Z 13017G23KT 19/M02 A2972 RMK A01 T01891024  RH  024%=      5-min Rain = 0
KANS 212255Z 14016G21KT 19/M03 A2973 RMK A01 T01861025  RH  024%=      5-min Rain = 0
KANS 212300Z 14012G17KT 19/M03 A2973 RMK A01 T01861025  RH  024%=      5-min Rain = 0
KANS 212305Z 13011KT 19/M03 A2973 RMK A01 T01881027  RH  023%=      5-min Rain = 0
KANS 212310Z 14013G18KT 19/M02 A2973 RMK A01 T01871023  RH  024%=      5-min Rain = 0
KANS 212315Z 14013G18KT 19/M02 A2973 RMK A01 T01851021  RH  025%=      5-min Rain = 0
KANS 212320Z 14013G18KT 18/M02 A2973 RMK A01 T01831023  RH  025%=      5-min Rain = 0
KANS 212325Z 14013G21KT 18/M02 A2973 RMK A01 T01831021  RH  025%=      5-min Rain = 0
KANS 212330Z 14015G20KT 18/M02 A2973 RMK A01 T01791020  RH  026%=      5-min Rain = 0
KANS 212335Z 13015G20KT 18/M02 A2974 RMK A01 T01781020  RH  026%=      5-min Rain = 0
KANS 212340Z 13016G21KT 18/M02 A2974 RMK A01 T01751018  RH  027%=      5-min Rain = 0
KANS 212345Z 14015G20KT 17/M02 A2974 RMK A01 T01731017  RH  028%=      5-min Rain = 0
KANS 212350Z 13015G20KT 17/M02 A2974 RMK A01 T01711016  RH  028%=      5-min Rain = 0
KANS 212355Z 13015G20KT 17/M02 A2974 RMK A01 T01691015  RH  029%=      5-min Rain = 0
KANS 220000Z 13013G18KT 17/M01 A2974 RMK A01 T01671014  RH  029%=      5-min Rain = 0
KANS 220005Z 13013G19KT 17/M01 A2974 RMK A01 T01651014  RH  030%=      5-min Rain = 0
KANS 220010Z 13014KT 16/M01 A2975 RMK A01 T01631014  RH  030%=      5-min Rain = 0
KANS 220015Z 13013G20KT 16/M01 A2975 RMK A01 T01611013  RH  031%=      5-min Rain = 0
KANS 220020Z 13015G21KT 16/M01 A2975 RMK A01 T01581013  RH  031%=      5-min Rain = 0
KANS 220025Z 13014G19KT 16/M01 A2975 RMK A01 T01561013  RH  032%=      5-min Rain = 0
KANS 220030Z 13012KT 15/M01 A2976 RMK A01 T01541012  RH  032%=      5-min Rain = 0
KANS 220035Z 12011G16KT 15/M01 A2976 RMK A01 T01501009  RH  034%=      5-min Rain = 0
KANS 220040Z 12011G16KT 15/M00 A2976 RMK A01 T01461002  RH  037%=      5-min Rain = 0
KANS 220045Z 12011KT 14/00 A2977 RMK A01 T01420001  RH  038%=      5-min Rain = 0
KANS 220050Z 12012KT 14/00 A2977 RMK A01 T01390001  RH  039%=      5-min Rain = 0
KANS 220055Z 12011KT 14/00 A2977 RMK A01 T01370001  RH  040%=      5-min Rain = 0
KANS 220100Z 12011KT 14/00 A2977 RMK A01 T01350001  RH  040%=      5-min Rain = 0
KANS 220105Z 12011KT 13/00 A2978 RMK A01 T01340001  RH  041%=      5-min Rain = 0
KANS 220110Z 12012G17KT 13/00 A2978 RMK A01 T013200-0  RH  041%=      5-min Rain = 0
KANS 220115Z 13013G19KT 13/M00 A2978 RMK A01 T01311001  RH  041%=      5-min Rain = 0
KANS 220120Z 13012KT 13/M00 A2978 RMK A01 T01301002  RH  041%=      5-min Rain = 0
KANS 220125Z 12013KT 13/M00 A2978 RMK A01 T01291002  RH  041%=      5-min Rain = 0
KANS 220130Z 13013KT 13/M00 A2978 RMK A01 T01271002  RH  041%=      5-min Rain = 0
KANS 220135Z 12013KT 13/M00 A2979 RMK A01 T01251002  RH  042%=      5-min Rain = 0
KANS 220140Z 12012KT 12/M00 A2979 RMK A01 T01221002  RH  043%=      5-min Rain = 0
KANS 220145Z 12012G17KT 12/M00 A2979 RMK A01 T01201002  RH  044%=      5-min Rain = 0
KANS 220150Z 12013KT 12/M00 A2979 RMK A01 T01191002  RH  044%=      5-min Rain = 0
KANS 220155Z 13013KT 12/M00 A2979 RMK A01 T01181001  RH  044%=      5-min Rain = 0
KANS 220200Z 13014G19KT 12/M00 A2979 RMK A01 T01171001  RH  045%=      5-min Rain = 0
KANS 220205Z 13014G19KT 12/00 A2979 RMK A01 T011700-0  RH  045%=      5-min Rain = 0
KANS 220210Z 12014KT 12/00 A2979 RMK A01 T011600-0  RH  045%=      5-min Rain = 0
KANS 220215Z 12012KT 11/00 A298 RMK A01 T01140000  RH  046%=      5-min Rain = 0
KANS 220220Z 12012KT 11/00 A298 RMK A01 T01110002  RH  047%=      5-min Rain = 0
KANS 220225Z 12011KT 11/00 A298 RMK A01 T01090003  RH  048%=      5-min Rain = 0
KANS 220230Z 12011G16KT 11/00 A298 RMK A01 T01070004  RH  049%=      5-min Rain = 0
KANS 220235Z 12011G16KT 11/01 A298 RMK A01 T01060005  RH  050%=      5-min Rain = 0
KANS 220240Z 12011G16KT 10/01 A298 RMK A01 T01040005  RH  051%=      5-min Rain = 0
KANS 220245Z 12012KT 10/01 A298 RMK A01 T01030005  RH  051%=      5-min Rain = 0
KANS 220250Z 11011G17KT 10/01 A298 RMK A01 T01010005  RH  052%=      5-min Rain = 0
KANS 220255Z 12011KT 10/01 A298 RMK A01 T00990006  RH  053%=      5-min Rain = 0
KANS 220300Z 11011G16KT 10/01 A298 RMK A01 T00980006  RH  053%=      5-min Rain = 0
KANS 220305Z 11011KT 10/01 A298 RMK A01 T00960006  RH  054%=      5-min Rain = 0
KANS 220310Z 12011G16KT 10/01 A298 RMK A01 T00950006  RH  054%=      5-min Rain = 0
KANS 220315Z 11011G16KT 09/01 A298 RMK A01 T00940007  RH  055%=      5-min Rain = 0
KANS 220320Z 12012G18KT 09/01 A298 RMK A01 T00930007  RH  056%=      5-min Rain = 0
KANS 220325Z 12012KT 09/01 A298 RMK A01 T00910007  RH  056%=      5-min Rain = 0
KANS 220330Z 12011G16KT 09/01 A2981 RMK A01 T00900008  RH  057%=      5-min Rain = 0
KANS 220335Z 11012G17KT 09/01 A2981 RMK A01 T00890008  RH  057%=      5-min Rain = 0
KANS 220340Z 11013KT 09/01 A2981 RMK A01 T00880009  RH  058%=      5-min Rain = 0
KANS 220345Z 12013G18KT 09/01 A2981 RMK A01 T00880009  RH  058%=      5-min Rain = 0
KANS 220350Z 12012KT 09/01 A2982 RMK A01 T00860009  RH  059%=      5-min Rain = 0
KANS 220355Z 12011KT 08/01 A2982 RMK A01 T00840009  RH  060%=      5-min Rain = 0
KANS 220400Z 12011KT 08/01 A2982 RMK A01 T00820008  RH  060%=      5-min Rain = 0
KANS 220405Z 12011KT 08/01 A2982 RMK A01 T00800008  RH  061%=      5-min Rain = 0
KANS 220410Z 11009KT 08/01 A2982 RMK A01 T00780007  RH  062%=      5-min Rain = 0
KANS 220415Z 11010KT 08/01 A2982 RMK A01 T00750006  RH  062%=      5-min Rain = 0
KANS 220420Z 11010KT 07/01 A2982 RMK A01 T00720005  RH  063%=      5-min Rain = 0
KANS 220425Z 10010KT 07/00 A2982 RMK A01 T00700003  RH  063%=      5-min Rain = 0
KANS 220430Z 11010KT 07/00 A2982 RMK A01 T00680002  RH  063%=      5-min Rain = 0
KANS 220435Z 12010KT 07/00 A2982 RMK A01 T00670002  RH  064%=      5-min Rain = 0
KANS 220440Z 12010KT 07/00 A2982 RMK A01 T00660001  RH  064%=      5-min Rain = 0
KANS 220445Z 11010KT 07/00 A2982 RMK A01 T00650000  RH  064%=      5-min Rain = 0
KANS 220450Z 11010KT 06/00 A2982 RMK A01 T006300-0  RH  064%=      5-min Rain = 0
KANS 220455Z 11010KT 06/00 A2982 RMK A01 T006300-0  RH  065%=      5-min Rain = 0
KANS 220500Z 12010G15KT 06/M00 A2982 RMK A01 T00621001  RH  065%=      5-min Rain = 0
KANS 220505Z 12010G15KT 06/M00 A2982 RMK A01 T00611002  RH  065%=      5-min Rain = 0
KANS 220510Z 11010KT 06/M00 A2982 RMK A01 T00601003  RH  065%=      5-min Rain = 0
KANS 220515Z 11010G15KT 06/M00 A2983 RMK A01 T00581004  RH  065%=      5-min Rain = 0
KANS 220520Z 11009KT 06/M01 A2983 RMK A01 T00561005  RH  066%=      5-min Rain = 0
KANS 220525Z 11011KT 05/M01 A2982 RMK A01 T00541006  RH  066%=      5-min Rain = 0
KANS 220530Z 11012KT 05/M01 A2982 RMK A01 T00541007  RH  066%=      5-min Rain = 0
KANS 220535Z 11011KT 05/M01 A2982 RMK A01 T00541008  RH  065%=      5-min Rain = 0
KANS 220540Z 11009KT 05/M01 A2982 RMK A01 T00521009  RH  065%=      5-min Rain = 0
KANS 220545Z 11010KT 05/M01 A2982 RMK A01 T00501010  RH  066%=      5-min Rain = 0
KANS 220550Z 11010KT 05/M01 A2982 RMK A01 T00491011  RH  066%=      5-min Rain = 0
KANS 220555Z 11010KT 05/M01 A2982 RMK A01 T00471012  RH  066%=      5-min Rain = 0

Page generated in 0.0096 seconds.